Terminal Aerodrome Forecast
Issued by NWS San Angelo, TX

Home | Current Version | Previous Version | Text Only | Print | Product List | Glossary On
Versions: 1 2 3 4 5 6 7 8 9 10 11 12 13
012
FTUS44 KSJT 221126
TAFABI
TAF
KABI 221126Z 2212/2312 15008KT P6SM SKC
     FM221500 19010KT P6SM FEW090
     FM230100 14009KT P6SM SCT250=

USA.gov is the U.S. government's official web portal to all federal, state and local government web resources and services.